Kezdőlap
METAR-TAF:

METAR-TAF

Repülőterek :

Curaçao, Holland Antillák

földrajzi szélesség: 12-12N, földrajzi hosszúság: 068-58W, magasság: 9 m

Jelenlegi meteorológiai megfigyelések

A jelentés 39 perccel ezelõtt készült, 20:00 UTC
Keleti szél 9 kt
Hőmérséklet 30°C
Páratartalom 70%
Légköri nyomás 1013 hPa
Látótávolság 10 km, vagy több
Kevés felhő 2400 lábon

METAR: TNCC 262000Z 08009KT 9999 FEW024 30/24 Q1013 NOSIG

Idő: 16:39 (20:39 UTC)

Előrejelzés

A jelentés 9 órával és 24 perccel ezelõtt készült, 11:15 UTC
Az előrejelzés 26-én 12 óra UTC és 27-én 12 óra UTC között érvényes
Keleti szél 10 kt
Látótávolság 10 km, vagy több
Szórványos felhőzet 2200 lábon

TAF: TNCC 261115Z 2612/2712 09010KT 9999 SCT022

Meteorológiai megfigyelések és előrejelzések több, mint 4000 repülőtéren (METAR és TAF jelentéseket).

A térképen piros és sárga pontok jelzik az elérhető meteorológiai állomásokat.

Mozgassa az egeret a pont fölött, hogy megjelenjen az állomás neve.

Azután kattintson az időjárási megfigyelések és előrejelzések megtekintéséhez.

A térkép megváltoztatása: kattintson a fekete keresztel jelölt zöld gombra ráközelítéshez, a vonallal jelölt zöld gombra távolításhoz, vagy a zöld nyilakra a szomszédos térképek eléréséhez.


METAR-TAF: